TitleAuthorLatest activityViews
ThreadMihail_PotapovOctober 17, 2017 7:23:22 AM 760 0 3
Threadav9595October 17, 2017 7:21:15 AM 1140 0 2
Threaddavidb1234October 17, 2017 7:16:04 AM 1890 0 7
ThreadDan_reynoldsOctober 17, 2017 7:09:36 AM 1550 0 4
ThreadJH616October 17, 2017 7:05:59 AM 710 0 2
Threaddeclan.odonoghueOctober 17, 2017 6:56:55 AM 1160 0 4
ThreadNickC9POctober 17, 2017 6:49:12 AM 1110 0 3
ThreadkineticmOctober 17, 2017 6:47:43 AM 2370 0 12
ThreadGagliotoOctober 17, 2017 6:30:45 AM 681 0 2
ThreadErezOctober 17, 2017 6:25:34 AM 340 0 0
ThreadPoornimaOctober 17, 2017 6:16:04 AM 470 0 0
ThreadHaukeMOctober 17, 2017 6:14:49 AM 521 0 2
ThreadpharthiphanOctober 17, 2017 6:03:35 AM 723 1 2
ThreadRadeshwarOctober 17, 2017 5:27:40 AM 400 0 0
ThreadunounotresOctober 17, 2017 5:07:15 AM 2080 0 8
ThreadGendoIkariOctober 17, 2017 5:04:48 AM 950 0 2
ThreadjuzxxOctober 17, 2017 5:04:42 AM 380 0 0
Threadedubay95October 17, 2017 4:51:44 AM 510 0 0
ThreadorbyOctober 17, 2017 4:36:32 AM 1350 0 4
ThreaddesidarkOctober 17, 2017 4:26:25 AM 310 0 0